Terminal Aerodrome Forecast
Issued by NWS

Home | Current Version | Previous Version | Text Only | Print | Product List | Glossary Off
Versions: 1 2 3 4 5 6 7 8 9 10 11 12 13 14 15 16

000
FTUS43 KICT 291100
TAFHUT
TAF
KHUT 291120Z 2912/3012 13005KT P6SM SKC
     FM291600 17012G18KT P6SM SCT060
     FM300300 12005KT P6SM SCT050 BKN200=

USA.gov is the U.S. government's official web portal to all federal, state and local government web resources and services.